sensor_id;sensor_type;location;lat;lon;timestamp;temperature;humidity
21255;DHT22;10785;50.674;17.954;2023-09-08T00:01:00;16.40;99.90
21255;DHT22;10785;50.674;17.954;2023-09-08T00:03:28;16.40;99.90
21255;DHT22;10785;50.674;17.954;2023-09-08T00:05:57;16.40;99.90
21255;DHT22;10785;50.674;17.954;2023-09-08T00:08:25;16.40;99.90
21255;DHT22;10785;50.674;17.954;2023-09-08T00:10:54;16.30;99.90
21255;DHT22;10785;50.674;17.954;2023-09-08T00:13:23;16.30;99.90
21255;DHT22;10785;50.674;17.954;2023-09-08T00:15:53;16.30;99.90
21255;DHT22;10785;50.674;17.954;2023-09-08T00:18:22;16.20;99.90
21255;DHT22;10785;50.674;17.954;2023-09-08T00:20:51;16.20;99.90
21255;DHT22;10785;50.674;17.954;2023-09-08T00:23:19;16.10;99.90
21255;DHT22;10785;50.674;17.954;2023-09-08T00:25:49;16.00;99.90
21255;DHT22;10785;50.674;17.954;2023-09-08T00:28:17;15.90;99.90
21255;DHT22;10785;50.674;17.954;2023-09-08T00:30:46;15.80;99.90
21255;DHT22;10785;50.674;17.954;2023-09-08T00:33:16;15.70;99.90
21255;DHT22;10785;50.674;17.954;2023-09-08T00:35:48;15.70;99.90
21255;DHT22;10785;50.674;17.954;2023-09-08T00:38:17;15.70;99.90
21255;DHT22;10785;50.674;17.954;2023-09-08T00:40:46;15.70;99.90
21255;DHT22;10785;50.674;17.954;2023-09-08T00:43:14;15.70;99.90
21255;DHT22;10785;50.674;17.954;2023-09-08T00:45:46;15.70;99.90
21255;DHT22;10785;50.674;17.954;2023-09-08T00:48:16;15.70;99.90
21255;DHT22;10785;50.674;17.954;2023-09-08T00:50:46;15.60;99.90
21255;DHT22;10785;50.674;17.954;2023-09-08T00:53:15;15.60;99.90
21255;DHT22;10785;50.674;17.954;2023-09-08T00:55:45;15.60;99.90
21255;DHT22;10785;50.674;17.954;2023-09-08T00:58:13;15.50;99.90
21255;DHT22;10785;50.674;17.954;2023-09-08T01:00:42;15.60;99.90
21255;DHT22;10785;50.674;17.954;2023-09-08T01:03:12;15.50;99.90
21255;DHT22;10785;50.674;17.954;2023-09-08T01:05:42;15.50;99.90
21255;DHT22;10785;50.674;17.954;2023-09-08T01:08:13;15.40;99.90
21255;DHT22;10785;50.674;17.954;2023-09-08T01:10:42;15.40;99.90
21255;DHT22;10785;50.674;17.954;2023-09-08T01:13:11;15.30;99.90
21255;DHT22;10785;50.674;17.954;2023-09-08T01:15:40;15.20;99.90
21255;DHT22;10785;50.674;17.954;2023-09-08T01:18:10;15.20;99.90
21255;DHT22;10785;50.674;17.954;2023-09-08T01:20:56;15.20;99.90
21255;DHT22;10785;50.674;17.954;2023-09-08T01:23:39;15.10;99.90
21255;DHT22;10785;50.674;17.954;2023-09-08T01:26:17;15.10;99.90
21255;DHT22;10785;50.674;17.954;2023-09-08T01:28:50;15.10;99.90
21255;DHT22;10785;50.674;17.954;2023-09-08T01:31:19;15.10;99.90
21255;DHT22;10785;50.674;17.954;2023-09-08T01:33:49;15.10;99.90
21255;DHT22;10785;50.674;17.954;2023-09-08T01:36:18;15.10;99.90
21255;DHT22;10785;50.674;17.954;2023-09-08T01:38:46;15.00;99.90
21255;DHT22;10785;50.674;17.954;2023-09-08T01:41:16;15.00;99.90
21255;DHT22;10785;50.674;17.954;2023-09-08T01:43:45;15.00;99.90
21255;DHT22;10785;50.674;17.954;2023-09-08T01:46:14;15.00;99.90
21255;DHT22;10785;50.674;17.954;2023-09-08T01:48:42;15.00;99.90
21255;DHT22;10785;50.674;17.954;2023-09-08T01:51:11;15.00;99.90
21255;DHT22;10785;50.674;17.954;2023-09-08T01:53:40;15.00;99.90
21255;DHT22;10785;50.674;17.954;2023-09-08T01:56:10;15.10;99.90
21255;DHT22;10785;50.674;17.954;2023-09-08T01:58:40;15.00;99.90
21255;DHT22;10785;50.674;17.954;2023-09-08T02:01:08;15.10;99.90
21255;DHT22;10785;50.674;17.954;2023-09-08T02:03:38;15.10;99.90
21255;DHT22;10785;50.674;17.954;2023-09-08T02:06:07;15.10;99.90
21255;DHT22;10785;50.674;17.954;2023-09-08T02:08:35;15.10;99.90
21255;DHT22;10785;50.674;17.954;2023-09-08T02:11:06;15.10;99.90
21255;DHT22;10785;50.674;17.954;2023-09-08T02:13:35;15.10;99.90
21255;DHT22;10785;50.674;17.954;2023-09-08T02:16:05;15.10;99.90
21255;DHT22;10785;50.674;17.954;2023-09-08T02:18:35;15.00;99.90
21255;DHT22;10785;50.674;17.954;2023-09-08T02:21:05;14.90;99.90
21255;DHT22;10785;50.674;17.954;2023-09-08T02:23:33;14.90;99.90
21255;DHT22;10785;50.674;17.954;2023-09-08T02:26:02;14.90;99.90
21255;DHT22;10785;50.674;17.954;2023-09-08T02:28:31;14.80;99.90
21255;DHT22;10785;50.674;17.954;2023-09-08T02:31:01;14.80;99.90
21255;DHT22;10785;50.674;17.954;2023-09-08T02:33:31;14.80;99.90
21255;DHT22;10785;50.674;17.954;2023-09-08T02:36:04;14.70;99.90
21255;DHT22;10785;50.674;17.954;2023-09-08T02:38:35;14.70;99.90
21255;DHT22;10785;50.674;17.954;2023-09-08T02:41:05;14.70;99.90
21255;DHT22;10785;50.674;17.954;2023-09-08T02:43:34;14.70;99.90
21255;DHT22;10785;50.674;17.954;2023-09-08T02:46:03;14.60;99.90
21255;DHT22;10785;50.674;17.954;2023-09-08T02:48:33;14.60;99.90
21255;DHT22;10785;50.674;17.954;2023-09-08T02:51:02;14.50;99.90
21255;DHT22;10785;50.674;17.954;2023-09-08T02:53:31;14.50;99.90
21255;DHT22;10785;50.674;17.954;2023-09-08T02:56:00;14.50;99.90
21255;DHT22;10785;50.674;17.954;2023-09-08T02:58:30;14.40;99.90
21255;DHT22;10785;50.674;17.954;2023-09-08T03:01:10;14.40;99.90
21255;DHT22;10785;50.674;17.954;2023-09-08T03:03:42;14.40;99.90
21255;DHT22;10785;50.674;17.954;2023-09-08T03:06:12;14.30;99.90
21255;DHT22;10785;50.674;17.954;2023-09-08T03:08:41;14.30;99.90
21255;DHT22;10785;50.674;17.954;2023-09-08T03:11:10;14.30;99.90
21255;DHT22;10785;50.674;17.954;2023-09-08T03:13:40;14.30;99.90
21255;DHT22;10785;50.674;17.954;2023-09-08T03:16:10;14.30;99.90
21255;DHT22;10785;50.674;17.954;2023-09-08T03:18:39;14.30;99.90
21255;DHT22;10785;50.674;17.954;2023-09-08T03:21:09;14.30;99.90
21255;DHT22;10785;50.674;17.954;2023-09-08T03:23:39;14.20;99.90
21255;DHT22;10785;50.674;17.954;2023-09-08T03:26:08;14.10;99.90
21255;DHT22;10785;50.674;17.954;2023-09-08T03:28:38;14.10;99.90
21255;DHT22;10785;50.674;17.954;2023-09-08T03:31:06;14.10;99.90
21255;DHT22;10785;50.674;17.954;2023-09-08T03:33:36;14.10;99.90
21255;DHT22;10785;50.674;17.954;2023-09-08T03:36:08;14.10;99.90
21255;DHT22;10785;50.674;17.954;2023-09-08T03:38:37;14.10;99.90
21255;DHT22;10785;50.674;17.954;2023-09-08T03:41:06;14.10;99.90
21255;DHT22;10785;50.674;17.954;2023-09-08T03:43:44;14.00;99.90
21255;DHT22;10785;50.674;17.954;2023-09-08T03:46:13;14.00;99.90
21255;DHT22;10785;50.674;17.954;2023-09-08T03:48:42;13.90;99.90
21255;DHT22;10785;50.674;17.954;2023-09-08T03:51:12;13.90;99.90
21255;DHT22;10785;50.674;17.954;2023-09-08T03:53:41;13.90;99.90
21255;DHT22;10785;50.674;17.954;2023-09-08T03:56:10;13.80;99.90
21255;DHT22;10785;50.674;17.954;2023-09-08T03:58:39;13.80;99.90
21255;DHT22;10785;50.674;17.954;2023-09-08T04:01:07;13.80;99.90
21255;DHT22;10785;50.674;17.954;2023-09-08T04:03:36;13.70;99.90
21255;DHT22;10785;50.674;17.954;2023-09-08T04:06:05;13.70;99.90
21255;DHT22;10785;50.674;17.954;2023-09-08T04:08:38;13.70;99.90
21255;DHT22;10785;50.674;17.954;2023-09-08T04:11:06;13.70;99.90
21255;DHT22;10785;50.674;17.954;2023-09-08T04:13:35;13.70;99.90
21255;DHT22;10785;50.674;17.954;2023-09-08T04:16:04;13.70;99.90
21255;DHT22;10785;50.674;17.954;2023-09-08T04:18:34;13.70;99.90
21255;DHT22;10785;50.674;17.954;2023-09-08T04:21:05;13.70;99.90
21255;DHT22;10785;50.674;17.954;2023-09-08T04:23:34;13.70;99.90
21255;DHT22;10785;50.674;17.954;2023-09-08T04:26:05;13.80;99.90
21255;DHT22;10785;50.674;17.954;2023-09-08T04:28:33;13.80;99.90
21255;DHT22;10785;50.674;17.954;2023-09-08T04:31:02;13.90;99.90
21255;DHT22;10785;50.674;17.954;2023-09-08T04:33:31;14.00;99.90
21255;DHT22;10785;50.674;17.954;2023-09-08T04:36:00;14.40;99.90
21255;DHT22;10785;50.674;17.954;2023-09-08T04:38:29;14.80;99.90
21255;DHT22;10785;50.674;17.954;2023-09-08T04:40:58;15.40;99.90
21255;DHT22;10785;50.674;17.954;2023-09-08T04:43:28;15.90;99.90
21255;DHT22;10785;50.674;17.954;2023-09-08T04:45:56;16.50;99.90
21255;DHT22;10785;50.674;17.954;2023-09-08T04:48:25;16.90;99.90
21255;DHT22;10785;50.674;17.954;2023-09-08T04:50:57;17.40;99.90
21255;DHT22;10785;50.674;17.954;2023-09-08T04:53:29;17.80;99.90
21255;DHT22;10785;50.674;17.954;2023-09-08T04:55:58;18.20;99.90
21255;DHT22;10785;50.674;17.954;2023-09-08T04:58:28;18.80;99.90
21255;DHT22;10785;50.674;17.954;2023-09-08T05:00:56;19.10;99.90
21255;DHT22;10785;50.674;17.954;2023-09-08T05:03:25;19.30;99.90
21255;DHT22;10785;50.674;17.954;2023-09-08T05:05:54;19.60;99.90
21255;DHT22;10785;50.674;17.954;2023-09-08T05:08:23;19.90;99.90
21255;DHT22;10785;50.674;17.954;2023-09-08T05:10:52;20.30;99.90
21255;DHT22;10785;50.674;17.954;2023-09-08T05:13:21;20.30;99.90
21255;DHT22;10785;50.674;17.954;2023-09-08T05:16:01;20.80;99.90
21255;DHT22;10785;50.674;17.954;2023-09-08T05:18:44;20.90;99.90
21255;DHT22;10785;50.674;17.954;2023-09-08T05:21:12;21.30;99.90
21255;DHT22;10785;50.674;17.954;2023-09-08T05:23:42;21.50;99.90
21255;DHT22;10785;50.674;17.954;2023-09-08T05:26:11;22.00;99.90
21255;DHT22;10785;50.674;17.954;2023-09-08T05:28:40;21.90;98.80
21255;DHT22;10785;50.674;17.954;2023-09-08T05:31:12;22.30;96.90
21255;DHT22;10785;50.674;17.954;2023-09-08T05:33:41;22.60;95.10
21255;DHT22;10785;50.674;17.954;2023-09-08T05:36:11;23.30;88.90
21255;DHT22;10785;50.674;17.954;2023-09-08T05:38:43;23.10;89.60
21255;DHT22;10785;50.674;17.954;2023-09-08T05:41:12;23.80;82.60
21255;DHT22;10785;50.674;17.954;2023-09-08T05:43:41;24.00;78.80
21255;DHT22;10785;50.674;17.954;2023-09-08T05:46:12;24.30;72.60
21255;DHT22;10785;50.674;17.954;2023-09-08T05:48:41;24.50;68.00
21255;DHT22;10785;50.674;17.954;2023-09-08T05:51:10;24.70;63.10
21255;DHT22;10785;50.674;17.954;2023-09-08T05:53:39;24.90;59.90
21255;DHT22;10785;50.674;17.954;2023-09-08T05:56:08;25.10;58.20
21255;DHT22;10785;50.674;17.954;2023-09-08T05:58:38;25.20;56.60
21255;DHT22;10785;50.674;17.954;2023-09-08T06:01:09;25.00;56.10
21255;DHT22;10785;50.674;17.954;2023-09-08T06:03:39;25.10;57.10
21255;DHT22;10785;50.674;17.954;2023-09-08T06:06:08;24.70;61.70
21255;DHT22;10785;50.674;17.954;2023-09-08T06:08:37;24.40;65.50
21255;DHT22;10785;50.674;17.954;2023-09-08T06:11:06;24.60;65.90
21255;DHT22;10785;50.674;17.954;2023-09-08T06:13:35;24.80;66.10
21255;DHT22;10785;50.674;17.954;2023-09-08T06:16:05;24.50;64.50
21255;DHT22;10785;50.674;17.954;2023-09-08T06:18:35;24.30;68.10
21255;DHT22;10785;50.674;17.954;2023-09-08T06:21:11;23.30;84.70
21255;DHT22;10785;50.674;17.954;2023-09-08T06:23:40;22.80;91.40
21255;DHT22;10785;50.674;17.954;2023-09-08T06:26:10;22.00;96.50
21255;DHT22;10785;50.674;17.954;2023-09-08T06:28:39;21.30;99.90
21255;DHT22;10785;50.674;17.954;2023-09-08T06:31:20;20.70;99.90
21255;DHT22;10785;50.674;17.954;2023-09-08T06:33:49;20.40;99.90
21255;DHT22;10785;50.674;17.954;2023-09-08T06:36:22;20.20;99.90
21255;DHT22;10785;50.674;17.954;2023-09-08T06:38:52;19.80;99.90
21255;DHT22;10785;50.674;17.954;2023-09-08T06:41:21;19.60;99.90
21255;DHT22;10785;50.674;17.954;2023-09-08T06:43:52;20.00;99.90
21255;DHT22;10785;50.674;17.954;2023-09-08T06:46:22;20.60;99.90
21255;DHT22;10785;50.674;17.954;2023-09-08T06:48:51;21.20;99.90
21255;DHT22;10785;50.674;17.954;2023-09-08T06:51:20;21.40;99.90
21255;DHT22;10785;50.674;17.954;2023-09-08T06:53:56;21.40;99.90
21255;DHT22;10785;50.674;17.954;2023-09-08T06:56:29;21.80;99.90
21255;DHT22;10785;50.674;17.954;2023-09-08T06:58:58;22.10;99.90
21255;DHT22;10785;50.674;17.954;2023-09-08T07:01:28;22.00;99.90
21255;DHT22;10785;50.674;17.954;2023-09-08T07:03:57;22.00;99.90
21255;DHT22;10785;50.674;17.954;2023-09-08T07:06:27;22.40;99.90
21255;DHT22;10785;50.674;17.954;2023-09-08T07:08:58;22.40;99.90
21255;DHT22;10785;50.674;17.954;2023-09-08T07:11:28;22.40;99.90
21255;DHT22;10785;50.674;17.954;2023-09-08T07:13:58;22.10;99.90
21255;DHT22;10785;50.674;17.954;2023-09-08T07:16:26;21.60;99.90
21255;DHT22;10785;50.674;17.954;2023-09-08T07:18:55;21.60;99.90
21255;DHT22;10785;50.674;17.954;2023-09-08T07:21:24;21.30;99.90
21255;DHT22;10785;50.674;17.954;2023-09-08T07:23:53;21.90;99.90
21255;DHT22;10785;50.674;17.954;2023-09-08T07:26:24;22.00;99.90
21255;DHT22;10785;50.674;17.954;2023-09-08T07:28:53;21.60;99.90
21255;DHT22;10785;50.674;17.954;2023-09-08T07:31:22;21.30;99.90
21255;DHT22;10785;50.674;17.954;2023-09-08T07:33:52;21.60;99.90
21255;DHT22;10785;50.674;17.954;2023-09-08T07:36:21;21.50;99.90
21255;DHT22;10785;50.674;17.954;2023-09-08T07:38:50;21.30;99.90
21255;DHT22;10785;50.674;17.954;2023-09-08T07:41:20;21.10;99.90
21255;DHT22;10785;50.674;17.954;2023-09-08T07:43:50;21.30;99.90
21255;DHT22;10785;50.674;17.954;2023-09-08T07:46:23;21.50;99.90
21255;DHT22;10785;50.674;17.954;2023-09-08T07:48:52;21.40;99.90
21255;DHT22;10785;50.674;17.954;2023-09-08T07:51:21;21.40;99.90
21255;DHT22;10785;50.674;17.954;2023-09-08T07:53:49;21.30;99.90
21255;DHT22;10785;50.674;17.954;2023-09-08T07:56:18;21.20;99.90
21255;DHT22;10785;50.674;17.954;2023-09-08T07:58:47;21.10;99.90
21255;DHT22;10785;50.674;17.954;2023-09-08T08:01:17;21.30;99.90
21255;DHT22;10785;50.674;17.954;2023-09-08T08:03:46;21.40;99.90
21255;DHT22;10785;50.674;17.954;2023-09-08T08:06:15;21.30;99.90
21255;DHT22;10785;50.674;17.954;2023-09-08T08:08:43;21.30;99.90
21255;DHT22;10785;50.674;17.954;2023-09-08T08:11:12;21.70;99.90
21255;DHT22;10785;50.674;17.954;2023-09-08T08:13:41;22.00;99.90
21255;DHT22;10785;50.674;17.954;2023-09-08T08:16:10;22.30;99.90
21255;DHT22;10785;50.674;17.954;2023-09-08T08:18:40;22.40;99.90
21255;DHT22;10785;50.674;17.954;2023-09-08T08:21:09;22.40;99.90
21255;DHT22;10785;50.674;17.954;2023-09-08T08:23:38;22.50;99.90
21255;DHT22;10785;50.674;17.954;2023-09-08T08:26:07;22.60;99.90
21255;DHT22;10785;50.674;17.954;2023-09-08T08:28:35;22.50;99.90
21255;DHT22;10785;50.674;17.954;2023-09-08T08:31:04;22.50;99.90
21255;DHT22;10785;50.674;17.954;2023-09-08T08:33:33;22.60;99.90
21255;DHT22;10785;50.674;17.954;2023-09-08T08:36:03;22.60;99.90
21255;DHT22;10785;50.674;17.954;2023-09-08T08:38:32;22.70;99.90
21255;DHT22;10785;50.674;17.954;2023-09-08T08:41:04;22.50;99.90
21255;DHT22;10785;50.674;17.954;2023-09-08T08:43:33;22.40;99.90
21255;DHT22;10785;50.674;17.954;2023-09-08T08:46:02;22.40;99.90
21255;DHT22;10785;50.674;17.954;2023-09-08T08:48:32;22.50;99.90
21255;DHT22;10785;50.674;17.954;2023-09-08T08:51:03;22.50;99.90
21255;DHT22;10785;50.674;17.954;2023-09-08T08:53:33;22.60;99.90
21255;DHT22;10785;50.674;17.954;2023-09-08T08:56:03;22.60;99.90
21255;DHT22;10785;50.674;17.954;2023-09-08T08:58:33;22.70;99.90
21255;DHT22;10785;50.674;17.954;2023-09-08T09:01:04;22.50;99.90
21255;DHT22;10785;50.674;17.954;2023-09-08T09:03:34;22.50;99.90
21255;DHT22;10785;50.674;17.954;2023-09-08T09:06:06;22.70;99.90
21255;DHT22;10785;50.674;17.954;2023-09-08T09:08:37;22.80;99.90
21255;DHT22;10785;50.674;17.954;2023-09-08T09:11:06;22.80;99.90
21255;DHT22;10785;50.674;17.954;2023-09-08T09:13:35;22.90;99.90
21255;DHT22;10785;50.674;17.954;2023-09-08T09:16:05;23.10;99.90
21255;DHT22;10785;50.674;17.954;2023-09-08T09:18:53;23.20;99.90
21255;DHT22;10785;50.674;17.954;2023-09-08T09:21:24;23.10;99.90
21255;DHT22;10785;50.674;17.954;2023-09-08T09:24:13;23.20;99.90
21255;DHT22;10785;50.674;17.954;2023-09-08T09:26:46;23.30;99.90
21255;DHT22;10785;50.674;17.954;2023-09-08T09:29:20;23.50;99.90
21255;DHT22;10785;50.674;17.954;2023-09-08T09:31:53;23.60;99.90
21255;DHT22;10785;50.674;17.954;2023-09-08T09:34:23;23.60;99.90
21255;DHT22;10785;50.674;17.954;2023-09-08T09:36:53;23.60;99.90
21255;DHT22;10785;50.674;17.954;2023-09-08T09:39:23;23.50;99.90
21255;DHT22;10785;50.674;17.954;2023-09-08T09:41:54;23.30;99.90
21255;DHT22;10785;50.674;17.954;2023-09-08T09:44:23;23.30;99.90
21255;DHT22;10785;50.674;17.954;2023-09-08T09:46:52;23.40;99.90
21255;DHT22;10785;50.674;17.954;2023-09-08T09:49:21;23.40;99.90
21255;DHT22;10785;50.674;17.954;2023-09-08T09:51:54;23.50;99.90
21255;DHT22;10785;50.674;17.954;2023-09-08T09:54:23;23.70;99.90
21255;DHT22;10785;50.674;17.954;2023-09-08T09:56:52;24.00;99.80
21255;DHT22;10785;50.674;17.954;2023-09-08T09:59:21;24.20;99.20
21255;DHT22;10785;50.674;17.954;2023-09-08T10:01:50;24.40;98.50
21255;DHT22;10785;50.674;17.954;2023-09-08T10:04:20;24.50;96.50
21255;DHT22;10785;50.674;17.954;2023-09-08T10:06:50;24.50;98.00
21255;DHT22;10785;50.674;17.954;2023-09-08T10:09:21;24.70;96.80
21255;DHT22;10785;50.674;17.954;2023-09-08T10:11:50;24.80;98.10
21255;DHT22;10785;50.674;17.954;2023-09-08T10:14:23;24.80;96.90
21255;DHT22;10785;50.674;17.954;2023-09-08T10:16:57;25.00;92.50
21255;DHT22;10785;50.674;17.954;2023-09-08T10:19:28;24.90;92.70
21255;DHT22;10785;50.674;17.954;2023-09-08T10:22:00;25.00;92.60
21255;DHT22;10785;50.674;17.954;2023-09-08T10:24:34;24.90;92.80
21255;DHT22;10785;50.674;17.954;2023-09-08T10:27:05;25.00;91.70
21255;DHT22;10785;50.674;17.954;2023-09-08T10:29:36;25.10;91.40
21255;DHT22;10785;50.674;17.954;2023-09-08T10:32:07;25.10;91.70
21255;DHT22;10785;50.674;17.954;2023-09-08T10:34:37;25.00;92.40
21255;DHT22;10785;50.674;17.954;2023-09-08T10:37:19;25.10;92.80
21255;DHT22;10785;50.674;17.954;2023-09-08T10:39:49;25.30;91.30
21255;DHT22;10785;50.674;17.954;2023-09-08T10:42:25;25.30;86.80
21255;DHT22;10785;50.674;17.954;2023-09-08T10:45:01;25.30;83.30
21255;DHT22;10785;50.674;17.954;2023-09-08T10:47:33;25.40;85.00
21255;DHT22;10785;50.674;17.954;2023-09-08T10:50:16;25.60;82.10
21255;DHT22;10785;50.674;17.954;2023-09-08T10:52:45;25.70;74.30
21255;DHT22;10785;50.674;17.954;2023-09-08T10:55:15;25.70;75.10
21255;DHT22;10785;50.674;17.954;2023-09-08T10:57:45;25.90;78.60
21255;DHT22;10785;50.674;17.954;2023-09-08T11:00:18;26.00;75.10
21255;DHT22;10785;50.674;17.954;2023-09-08T11:02:49;26.10;71.70
21255;DHT22;10785;50.674;17.954;2023-09-08T11:05:18;26.10;76.00
21255;DHT22;10785;50.674;17.954;2023-09-08T11:07:48;26.10;76.30
21255;DHT22;10785;50.674;17.954;2023-09-08T11:10:21;26.00;75.10
21255;DHT22;10785;50.674;17.954;2023-09-08T11:12:53;26.20;79.20
21255;DHT22;10785;50.674;17.954;2023-09-08T11:15:22;26.30;66.40
21255;DHT22;10785;50.674;17.954;2023-09-08T11:17:51;26.30;69.10
21255;DHT22;10785;50.674;17.954;2023-09-08T11:20:26;26.30;71.10
21255;DHT22;10785;50.674;17.954;2023-09-08T11:22:56;26.20;70.00
21255;DHT22;10785;50.674;17.954;2023-09-08T11:25:26;26.30;66.00
21255;DHT22;10785;50.674;17.954;2023-09-08T11:27:55;26.50;59.20
21255;DHT22;10785;50.674;17.954;2023-09-08T11:30:25;26.70;59.40
21255;DHT22;10785;50.674;17.954;2023-09-08T11:32:53;26.60;58.10
21255;DHT22;10785;50.674;17.954;2023-09-08T11:35:31;26.60;54.20
21255;DHT22;10785;50.674;17.954;2023-09-08T11:38:00;26.60;57.50
21255;DHT22;10785;50.674;17.954;2023-09-08T11:40:33;26.50;56.40
21255;DHT22;10785;50.674;17.954;2023-09-08T11:43:05;26.50;57.00
21255;DHT22;10785;50.674;17.954;2023-09-08T11:45:34;26.50;56.20
21255;DHT22;10785;50.674;17.954;2023-09-08T11:48:04;26.60;54.40
21255;DHT22;10785;50.674;17.954;2023-09-08T11:50:33;26.60;51.20
21255;DHT22;10785;50.674;17.954;2023-09-08T11:53:02;26.60;49.30
21255;DHT22;10785;50.674;17.954;2023-09-08T11:55:32;26.80;48.50
21255;DHT22;10785;50.674;17.954;2023-09-08T11:58:03;26.70;42.80
21255;DHT22;10785;50.674;17.954;2023-09-08T12:00:33;26.80;41.30
21255;DHT22;10785;50.674;17.954;2023-09-08T12:03:11;26.70;38.50
21255;DHT22;10785;50.674;17.954;2023-09-08T12:05:40;26.60;42.70
21255;DHT22;10785;50.674;17.954;2023-09-08T12:08:10;26.70;38.80
21255;DHT22;10785;50.674;17.954;2023-09-08T12:10:41;26.80;36.70
21255;DHT22;10785;50.674;17.954;2023-09-08T12:13:10;26.90;35.40
21255;DHT22;10785;50.674;17.954;2023-09-08T12:15:42;26.80;39.80
21255;DHT22;10785;50.674;17.954;2023-09-08T12:18:12;26.80;37.40
21255;DHT22;10785;50.674;17.954;2023-09-08T12:20:43;26.70;41.30
21255;DHT22;10785;50.674;17.954;2023-09-08T12:23:17;26.70;39.60
21255;DHT22;10785;50.674;17.954;2023-09-08T12:25:48;26.70;35.70
21255;DHT22;10785;50.674;17.954;2023-09-08T12:28:18;26.60;43.90
21255;DHT22;10785;50.674;17.954;2023-09-08T12:30:49;26.90;44.00
21255;DHT22;10785;50.674;17.954;2023-09-08T12:33:19;26.90;34.70
21255;DHT22;10785;50.674;17.954;2023-09-08T12:35:49;27.00;30.90
21255;DHT22;10785;50.674;17.954;2023-09-08T12:38:20;27.10;28.40
21255;DHT22;10785;50.674;17.954;2023-09-08T12:40:51;27.10;27.70
21255;DHT22;10785;50.674;17.954;2023-09-08T12:43:19;27.10;22.50
21255;DHT22;10785;50.674;17.954;2023-09-08T12:45:55;27.10;20.30
21255;DHT22;10785;50.674;17.954;2023-09-08T12:48:24;27.30;21.20
21255;DHT22;10785;50.674;17.954;2023-09-08T12:50:53;27.30;18.40
21255;DHT22;10785;50.674;17.954;2023-09-08T12:53:22;27.20;23.70
21255;DHT22;10785;50.674;17.954;2023-09-08T12:55:52;27.10;26.50
21255;DHT22;10785;50.674;17.954;2023-09-08T12:58:21;27.00;27.70
21255;DHT22;10785;50.674;17.954;2023-09-08T13:00:49;27.00;24.40
21255;DHT22;10785;50.674;17.954;2023-09-08T13:03:18;26.90;26.80
21255;DHT22;10785;50.674;17.954;2023-09-08T13:05:47;27.00;23.50
21255;DHT22;10785;50.674;17.954;2023-09-08T13:08:16;27.10;23.80
21255;DHT22;10785;50.674;17.954;2023-09-08T13:10:44;27.20;25.00
21255;DHT22;10785;50.674;17.954;2023-09-08T13:13:14;27.30;15.10
21255;DHT22;10785;50.674;17.954;2023-09-08T13:15:43;27.30;12.00
21255;DHT22;10785;50.674;17.954;2023-09-08T13:18:12;27.40;10.00
21255;DHT22;10785;50.674;17.954;2023-09-08T13:20:40;27.40;19.70
21255;DHT22;10785;50.674;17.954;2023-09-08T13:23:09;27.30;23.30
21255;DHT22;10785;50.674;17.954;2023-09-08T13:25:37;27.20;23.80
21255;DHT22;10785;50.674;17.954;2023-09-08T13:28:07;27.10;21.40
21255;DHT22;10785;50.674;17.954;2023-09-08T13:30:37;27.00;22.20
21255;DHT22;10785;50.674;17.954;2023-09-08T13:33:05;27.00;21.60
21255;DHT22;10785;50.674;17.954;2023-09-08T13:35:35;27.10;18.70
21255;DHT22;10785;50.674;17.954;2023-09-08T13:38:03;27.00;22.90
21255;DHT22;10785;50.674;17.954;2023-09-08T13:40:32;27.00;16.90
21255;DHT22;10785;50.674;17.954;2023-09-08T13:43:01;27.10;14.20
21255;DHT22;10785;50.674;17.954;2023-09-08T13:45:30;27.20;16.10
21255;DHT22;10785;50.674;17.954;2023-09-08T13:48:00;27.10;18.50
21255;DHT22;10785;50.674;17.954;2023-09-08T13:50:31;27.10;17.00
21255;DHT22;10785;50.674;17.954;2023-09-08T13:53:01;27.10;17.40
21255;DHT22;10785;50.674;17.954;2023-09-08T13:55:31;27.10;15.50
21255;DHT22;10785;50.674;17.954;2023-09-08T13:58:05;27.00;16.80
21255;DHT22;10785;50.674;17.954;2023-09-08T14:00:37;26.90;19.40
21255;DHT22;10785;50.674;17.954;2023-09-08T14:03:13;26.90;18.50
21255;DHT22;10785;50.674;17.954;2023-09-08T14:05:48;26.90;12.20
21255;DHT22;10785;50.674;17.954;2023-09-08T14:08:21;26.80;11.50
21255;DHT22;10785;50.674;17.954;2023-09-08T14:10:53;26.80;12.10
21255;DHT22;10785;50.674;17.954;2023-09-08T14:13:24;26.90;8.60
21255;DHT22;10785;50.674;17.954;2023-09-08T14:15:54;26.90;10.30
21255;DHT22;10785;50.674;17.954;2023-09-08T14:18:24;26.90;8.80
21255;DHT22;10785;50.674;17.954;2023-09-08T14:20:53;26.80;9.70
21255;DHT22;10785;50.674;17.954;2023-09-08T14:23:22;26.70;7.50
21255;DHT22;10785;50.674;17.954;2023-09-08T14:25:50;26.70;7.80
21255;DHT22;10785;50.674;17.954;2023-09-08T14:28:19;26.70;6.40
21255;DHT22;10785;50.674;17.954;2023-09-08T14:30:49;26.80;4.00
21255;DHT22;10785;50.674;17.954;2023-09-08T14:33:19;26.80;2.70
21255;DHT22;10785;50.674;17.954;2023-09-08T14:35:49;26.70;6.00
21255;DHT22;10785;50.674;17.954;2023-09-08T14:38:19;26.70;6.20
21255;DHT22;10785;50.674;17.954;2023-09-08T14:40:54;26.70;8.80
21255;DHT22;10785;50.674;17.954;2023-09-08T14:43:24;26.70;9.30
21255;DHT22;10785;50.674;17.954;2023-09-08T14:45:53;26.80;8.10
21255;DHT22;10785;50.674;17.954;2023-09-08T14:48:21;26.80;9.40
21255;DHT22;10785;50.674;17.954;2023-09-08T14:50:52;26.90;9.60
21255;DHT22;10785;50.674;17.954;2023-09-08T14:53:20;26.90;9.00
21255;DHT22;10785;50.674;17.954;2023-09-08T14:55:50;26.80;9.60
21255;DHT22;10785;50.674;17.954;2023-09-08T14:58:23;26.70;8.30
21255;DHT22;10785;50.674;17.954;2023-09-08T15:00:52;26.70;8.00
21255;DHT22;10785;50.674;17.954;2023-09-08T15:03:20;26.60;9.70
21255;DHT22;10785;50.674;17.954;2023-09-08T15:05:49;26.50;9.80
21255;DHT22;10785;50.674;17.954;2023-09-08T15:08:19;26.50;8.30
21255;DHT22;10785;50.674;17.954;2023-09-08T15:10:48;26.50;8.00
21255;DHT22;10785;50.674;17.954;2023-09-08T15:13:17;26.50;7.70
21255;DHT22;10785;50.674;17.954;2023-09-08T15:15:50;26.50;4.90
21255;DHT22;10785;50.674;17.954;2023-09-08T15:18:18;26.50;4.70
21255;DHT22;10785;50.674;17.954;2023-09-08T15:20:50;26.50;3.50
21255;DHT22;10785;50.674;17.954;2023-09-08T15:23:21;26.50;4.80
21255;DHT22;10785;50.674;17.954;2023-09-08T15:25:51;26.40;6.70
21255;DHT22;10785;50.674;17.954;2023-09-08T15:28:20;26.30;4.80
21255;DHT22;10785;50.674;17.954;2023-09-08T15:30:49;26.30;5.60
21255;DHT22;10785;50.674;17.954;2023-09-08T15:33:19;26.30;5.40
21255;DHT22;10785;50.674;17.954;2023-09-08T15:35:51;26.30;3.80